sensor_id;sensor_type;location;lat;lon;timestamp;P1;durP1;ratioP1;P2;durP2;ratioP2
53022;SDS011;38913;44.338;11.206;2023-08-12T00:02:24;4.75;;;3.80;;
53022;SDS011;38913;44.338;11.206;2023-08-12T00:04:49;6.13;;;4.25;;
53022;SDS011;38913;44.338;11.206;2023-08-12T00:07:15;4.57;;;3.90;;
53022;SDS011;38913;44.338;11.206;2023-08-12T00:09:40;4.55;;;4.00;;
53022;SDS011;38913;44.338;11.206;2023-08-12T00:12:05;4.32;;;3.58;;
53022;SDS011;38913;44.338;11.206;2023-08-12T00:14:30;4.22;;;3.83;;
53022;SDS011;38913;44.338;11.206;2023-08-12T00:16:56;4.20;;;3.47;;
53022;SDS011;38913;44.338;11.206;2023-08-12T00:19:21;4.13;;;3.55;;
53022;SDS011;38913;44.338;11.206;2023-08-12T00:21:47;4.15;;;3.60;;
53022;SDS011;38913;44.338;11.206;2023-08-12T00:24:12;4.47;;;3.70;;
53022;SDS011;38913;44.338;11.206;2023-08-12T00:26:37;4.15;;;3.75;;
53022;SDS011;38913;44.338;11.206;2023-08-12T00:29:02;5.87;;;3.80;;
53022;SDS011;38913;44.338;11.206;2023-08-12T00:31:28;4.85;;;4.07;;
53022;SDS011;38913;44.338;11.206;2023-08-12T00:33:53;4.33;;;3.93;;
53022;SDS011;38913;44.338;11.206;2023-08-12T00:36:19;4.75;;;3.78;;
53022;SDS011;38913;44.338;11.206;2023-08-12T00:38:44;4.47;;;3.90;;
53022;SDS011;38913;44.338;11.206;2023-08-12T00:41:09;4.33;;;3.40;;
53022;SDS011;38913;44.338;11.206;2023-08-12T00:43:34;4.10;;;3.78;;
53022;SDS011;38913;44.338;11.206;2023-08-12T00:46:00;4.17;;;3.77;;
53022;SDS011;38913;44.338;11.206;2023-08-12T00:48:25;3.97;;;3.60;;
53022;SDS011;38913;44.338;11.206;2023-08-12T00:50:50;4.88;;;3.90;;
53022;SDS011;38913;44.338;11.206;2023-08-12T00:53:17;3.55;;;3.25;;
53022;SDS011;38913;44.338;11.206;2023-08-12T00:55:42;4.38;;;3.97;;
53022;SDS011;38913;44.338;11.206;2023-08-12T00:58:08;5.30;;;3.88;;
53022;SDS011;38913;44.338;11.206;2023-08-12T01:00:33;4.30;;;3.90;;
53022;SDS011;38913;44.338;11.206;2023-08-12T01:02:58;4.18;;;3.70;;
53022;SDS011;38913;44.338;11.206;2023-08-12T01:05:25;11.23;;;3.88;;
53022;SDS011;38913;44.338;11.206;2023-08-12T01:07:50;3.87;;;3.57;;
53022;SDS011;38913;44.338;11.206;2023-08-12T01:10:15;3.78;;;3.47;;
53022;SDS011;38913;44.338;11.206;2023-08-12T01:12:44;5.35;;;3.83;;
53022;SDS011;38913;44.338;11.206;2023-08-12T01:15:15;4.30;;;3.90;;
53022;SDS011;38913;44.338;11.206;2023-08-12T01:17:42;3.75;;;3.13;;
53022;SDS011;38913;44.338;11.206;2023-08-12T01:20:09;3.88;;;3.20;;
53022;SDS011;38913;44.338;11.206;2023-08-12T01:22:39;4.28;;;3.60;;
53022;SDS011;38913;44.338;11.206;2023-08-12T01:25:05;4.65;;;3.45;;
53022;SDS011;38913;44.338;11.206;2023-08-12T01:27:31;4.10;;;3.67;;
53022;SDS011;38913;44.338;11.206;2023-08-12T01:29:56;4.85;;;3.72;;
53022;SDS011;38913;44.338;11.206;2023-08-12T01:37:32;4.82;;;3.88;;
53022;SDS011;38913;44.338;11.206;2023-08-12T01:40:00;6.97;;;3.85;;
53022;SDS011;38913;44.338;11.206;2023-08-12T01:42:26;4.18;;;3.78;;
53022;SDS011;38913;44.338;11.206;2023-08-12T01:44:52;3.70;;;3.40;;
53022;SDS011;38913;44.338;11.206;2023-08-12T01:47:18;5.47;;;3.55;;
53022;SDS011;38913;44.338;11.206;2023-08-12T01:49:43;4.70;;;3.23;;
53022;SDS011;38913;44.338;11.206;2023-08-12T01:52:08;3.87;;;3.40;;
53022;SDS011;38913;44.338;11.206;2023-08-12T01:54:33;3.70;;;3.40;;
53022;SDS011;38913;44.338;11.206;2023-08-12T01:57:03;4.05;;;3.65;;
53022;SDS011;38913;44.338;11.206;2023-08-12T01:59:30;3.75;;;3.45;;
53022;SDS011;38913;44.338;11.206;2023-08-12T02:01:55;4.00;;;3.58;;
53022;SDS011;38913;44.338;11.206;2023-08-12T02:04:20;3.53;;;3.23;;
53022;SDS011;38913;44.338;11.206;2023-08-12T02:06:46;3.77;;;3.47;;
53022;SDS011;38913;44.338;11.206;2023-08-12T02:09:11;3.72;;;3.42;;
53022;SDS011;38913;44.338;11.206;2023-08-12T02:11:36;4.23;;;3.83;;
53022;SDS011;38913;44.338;11.206;2023-08-12T02:14:01;4.53;;;3.53;;
53022;SDS011;38913;44.338;11.206;2023-08-12T02:16:27;4.43;;;3.40;;
53022;SDS011;38913;44.338;11.206;2023-08-12T02:18:52;4.43;;;3.53;;
53022;SDS011;38913;44.338;11.206;2023-08-12T02:21:17;3.57;;;3.17;;
53022;SDS011;38913;44.338;11.206;2023-08-12T02:23:42;3.80;;;3.40;;
53022;SDS011;38913;44.338;11.206;2023-08-12T02:26:09;4.00;;;3.63;;
53022;SDS011;38913;44.338;11.206;2023-08-12T02:28:34;3.75;;;3.45;;
53022;SDS011;38913;44.338;11.206;2023-08-12T02:30:59;4.83;;;3.80;;
53022;SDS011;38913;44.338;11.206;2023-08-12T02:33:25;4.00;;;3.60;;
53022;SDS011;38913;44.338;11.206;2023-08-12T02:35:52;5.13;;;3.90;;
53022;SDS011;38913;44.338;11.206;2023-08-12T02:38:17;3.88;;;3.58;;
53022;SDS011;38913;44.338;11.206;2023-08-12T02:40:42;4.13;;;3.73;;
53022;SDS011;38913;44.338;11.206;2023-08-12T02:43:08;3.93;;;3.63;;
53022;SDS011;38913;44.338;11.206;2023-08-12T02:45:35;4.65;;;3.63;;
53022;SDS011;38913;44.338;11.206;2023-08-12T02:48:00;4.57;;;3.53;;
53022;SDS011;38913;44.338;11.206;2023-08-12T02:50:25;4.10;;;3.40;;
53022;SDS011;38913;44.338;11.206;2023-08-12T02:52:51;4.93;;;3.30;;
53022;SDS011;38913;44.338;11.206;2023-08-12T02:55:16;3.73;;;3.43;;
53022;SDS011;38913;44.338;11.206;2023-08-12T02:57:41;3.78;;;3.40;;
53022;SDS011;38913;44.338;11.206;2023-08-12T03:00:07;5.13;;;3.78;;
53022;SDS011;38913;44.338;11.206;2023-08-12T03:02:33;4.47;;;3.28;;
53022;SDS011;38913;44.338;11.206;2023-08-12T03:04:58;4.30;;;3.50;;
53022;SDS011;38913;44.338;11.206;2023-08-12T03:07:23;4.10;;;3.70;;
53022;SDS011;38913;44.338;11.206;2023-08-12T03:09:48;4.23;;;3.83;;
53022;SDS011;38913;44.338;11.206;2023-08-12T03:12:14;4.07;;;3.63;;
53022;SDS011;38913;44.338;11.206;2023-08-12T03:14:39;4.03;;;3.63;;
53022;SDS011;38913;44.338;11.206;2023-08-12T03:17:04;3.87;;;3.47;;
53022;SDS011;38913;44.338;11.206;2023-08-12T03:19:29;6.37;;;3.77;;
53022;SDS011;38913;44.338;11.206;2023-08-12T03:21:54;4.20;;;3.80;;
53022;SDS011;38913;44.338;11.206;2023-08-12T03:24:20;4.07;;;3.50;;
53022;SDS011;38913;44.338;11.206;2023-08-12T03:26:45;3.53;;;3.23;;
53022;SDS011;38913;44.338;11.206;2023-08-12T03:29:10;4.07;;;3.67;;
53022;SDS011;38913;44.338;11.206;2023-08-12T03:31:35;4.67;;;3.90;;
53022;SDS011;38913;44.338;11.206;2023-08-12T03:34:01;3.83;;;3.53;;
53022;SDS011;38913;44.338;11.206;2023-08-12T03:36:26;3.87;;;3.53;;
53022;SDS011;38913;44.338;11.206;2023-08-12T03:38:51;4.00;;;3.60;;
53022;SDS011;38913;44.338;11.206;2023-08-12T03:41:16;4.07;;;3.43;;
53022;SDS011;38913;44.338;11.206;2023-08-12T03:43:42;7.43;;;3.83;;
53022;SDS011;38913;44.338;11.206;2023-08-12T03:46:07;97.63;;;12.60;;
53022;SDS011;38913;44.338;11.206;2023-08-12T03:48:32;20.87;;;4.90;;
53022;SDS011;38913;44.338;11.206;2023-08-12T03:50:57;14.07;;;4.70;;
53022;SDS011;38913;44.338;11.206;2023-08-12T03:53:23;14.87;;;5.17;;
53022;SDS011;38913;44.338;11.206;2023-08-12T03:55:48;11.50;;;4.40;;
53022;SDS011;38913;44.338;11.206;2023-08-12T03:58:13;16.30;;;4.63;;
53022;SDS011;38913;44.338;11.206;2023-08-12T04:00:41;28.80;;;5.73;;
53022;SDS011;38913;44.338;11.206;2023-08-12T04:03:07;18.92;;;5.18;;
53022;SDS011;38913;44.338;11.206;2023-08-12T04:05:33;8.05;;;3.95;;
53022;SDS011;38913;44.338;11.206;2023-08-12T04:07:58;11.97;;;3.90;;
53022;SDS011;38913;44.338;11.206;2023-08-12T04:10:23;4.10;;;3.57;;
53022;SDS011;38913;44.338;11.206;2023-08-12T04:12:48;5.72;;;3.60;;
53022;SDS011;38913;44.338;11.206;2023-08-12T04:15:14;11.33;;;4.67;;
53022;SDS011;38913;44.338;11.206;2023-08-12T04:17:39;10.10;;;4.20;;
53022;SDS011;38913;44.338;11.206;2023-08-12T04:20:06;11.15;;;4.40;;
53022;SDS011;38913;44.338;11.206;2023-08-12T04:22:31;13.30;;;3.65;;
53022;SDS011;38913;44.338;11.206;2023-08-12T04:24:57;5.68;;;3.38;;
53022;SDS011;38913;44.338;11.206;2023-08-12T04:27:22;4.87;;;3.50;;
53022;SDS011;38913;44.338;11.206;2023-08-12T04:29:47;4.63;;;3.70;;
53022;SDS011;38913;44.338;11.206;2023-08-12T04:32:13;4.38;;;3.53;;
53022;SDS011;38913;44.338;11.206;2023-08-12T04:34:38;5.03;;;3.70;;
53022;SDS011;38913;44.338;11.206;2023-08-12T04:37:03;3.93;;;3.50;;
53022;SDS011;38913;44.338;11.206;2023-08-12T04:39:28;6.07;;;3.37;;
53022;SDS011;38913;44.338;11.206;2023-08-12T04:41:54;4.07;;;3.67;;
53022;SDS011;38913;44.338;11.206;2023-08-12T04:44:19;3.57;;;3.27;;
53022;SDS011;38913;44.338;11.206;2023-08-12T04:46:44;9.25;;;3.97;;
53022;SDS011;38913;44.338;11.206;2023-08-12T04:49:09;5.67;;;3.63;;
53022;SDS011;38913;44.338;11.206;2023-08-12T04:51:35;4.28;;;3.88;;
53022;SDS011;38913;44.338;11.206;2023-08-12T04:54:00;6.57;;;4.00;;
53022;SDS011;38913;44.338;11.206;2023-08-12T04:56:27;5.47;;;3.45;;
53022;SDS011;38913;44.338;11.206;2023-08-12T04:58:54;6.25;;;3.63;;
53022;SDS011;38913;44.338;11.206;2023-08-12T05:01:19;6.70;;;3.78;;
53022;SDS011;38913;44.338;11.206;2023-08-12T05:03:44;6.83;;;3.50;;
53022;SDS011;38913;44.338;11.206;2023-08-12T05:06:09;4.77;;;3.97;;
53022;SDS011;38913;44.338;11.206;2023-08-12T05:08:35;4.50;;;3.53;;
53022;SDS011;38913;44.338;11.206;2023-08-12T05:11:00;3.67;;;3.00;;
53022;SDS011;38913;44.338;11.206;2023-08-12T05:13:25;5.27;;;3.27;;
53022;SDS011;38913;44.338;11.206;2023-08-12T05:15:50;3.10;;;2.72;;
53022;SDS011;38913;44.338;11.206;2023-08-12T05:18:16;4.13;;;3.00;;
53022;SDS011;38913;44.338;11.206;2023-08-12T05:20:41;3.92;;;3.00;;
53022;SDS011;38913;44.338;11.206;2023-08-12T05:23:07;3.95;;;2.95;;
53022;SDS011;38913;44.338;11.206;2023-08-12T05:25:32;5.07;;;3.03;;
53022;SDS011;38913;44.338;11.206;2023-08-12T05:27:57;3.08;;;2.78;;
53022;SDS011;38913;44.338;11.206;2023-08-12T05:30:23;3.25;;;2.60;;
53022;SDS011;38913;44.338;11.206;2023-08-12T05:32:48;4.70;;;3.20;;
53022;SDS011;38913;44.338;11.206;2023-08-12T05:35:13;2.83;;;2.20;;
53022;SDS011;38913;44.338;11.206;2023-08-12T05:37:38;3.63;;;2.40;;
53022;SDS011;38913;44.338;11.206;2023-08-12T05:40:04;2.80;;;2.57;;
53022;SDS011;38913;44.338;11.206;2023-08-12T05:42:33;2.90;;;2.55;;
53022;SDS011;38913;44.338;11.206;2023-08-12T05:44:58;2.73;;;2.40;;
53022;SDS011;38913;44.338;11.206;2023-08-12T05:47:23;4.33;;;2.40;;
53022;SDS011;38913;44.338;11.206;2023-08-12T05:49:48;3.47;;;2.50;;
53022;SDS011;38913;44.338;11.206;2023-08-12T05:52:14;3.10;;;2.30;;
53022;SDS011;38913;44.338;11.206;2023-08-12T05:54:39;3.60;;;2.23;;
53022;SDS011;38913;44.338;11.206;2023-08-12T05:57:04;2.30;;;2.00;;
53022;SDS011;38913;44.338;11.206;2023-08-12T05:59:29;5.53;;;2.30;;
53022;SDS011;38913;44.338;11.206;2023-08-12T06:01:55;3.63;;;2.47;;
53022;SDS011;38913;44.338;11.206;2023-08-12T06:04:20;2.77;;;2.10;;
53022;SDS011;38913;44.338;11.206;2023-08-12T06:06:45;3.20;;;2.40;;
53022;SDS011;38913;44.338;11.206;2023-08-12T06:09:10;3.00;;;2.30;;
53022;SDS011;38913;44.338;11.206;2023-08-12T06:11:36;6.00;;;2.70;;
53022;SDS011;38913;44.338;11.206;2023-08-12T06:14:01;15.43;;;3.63;;
53022;SDS011;38913;44.338;11.206;2023-08-12T06:16:26;4.27;;;2.40;;
53022;SDS011;38913;44.338;11.206;2023-08-12T06:18:51;2.75;;;2.13;;
53022;SDS011;38913;44.338;11.206;2023-08-12T06:21:17;6.47;;;2.37;;
53022;SDS011;38913;44.338;11.206;2023-08-12T06:23:42;3.80;;;2.00;;
53022;SDS011;38913;44.338;11.206;2023-08-12T06:26:08;2.85;;;2.30;;
53022;SDS011;38913;44.338;11.206;2023-08-12T06:28:33;2.50;;;1.98;;
53022;SDS011;38913;44.338;11.206;2023-08-12T06:30:58;2.57;;;2.00;;
53022;SDS011;38913;44.338;11.206;2023-08-12T06:33:23;3.72;;;2.50;;
53022;SDS011;38913;44.338;11.206;2023-08-12T06:35:49;2.27;;;2.03;;
53022;SDS011;38913;44.338;11.206;2023-08-12T06:38:15;4.80;;;2.30;;
53022;SDS011;38913;44.338;11.206;2023-08-12T06:40:40;2.40;;;2.07;;
53022;SDS011;38913;44.338;11.206;2023-08-12T06:43:06;2.97;;;2.00;;
53022;SDS011;38913;44.338;11.206;2023-08-12T06:45:32;2.03;;;1.73;;
53022;SDS011;38913;44.338;11.206;2023-08-12T06:47:57;2.30;;;2.10;;
53022;SDS011;38913;44.338;11.206;2023-08-12T06:50:23;3.97;;;2.37;;
53022;SDS011;38913;44.338;11.206;2023-08-12T06:52:48;2.20;;;2.00;;
53022;SDS011;38913;44.338;11.206;2023-08-12T06:55:13;2.65;;;2.03;;
53022;SDS011;38913;44.338;11.206;2023-08-12T06:57:39;2.20;;;1.90;;
53022;SDS011;38913;44.338;11.206;2023-08-12T07:00:04;2.20;;;2.00;;
53022;SDS011;38913;44.338;11.206;2023-08-12T07:02:30;2.65;;;2.00;;
53022;SDS011;38913;44.338;11.206;2023-08-12T07:04:55;3.83;;;2.08;;
53022;SDS011;38913;44.338;11.206;2023-08-12T07:07:20;3.10;;;1.90;;
53022;SDS011;38913;44.338;11.206;2023-08-12T07:09:46;2.77;;;1.80;;
53022;SDS011;38913;44.338;11.206;2023-08-12T07:12:11;2.00;;;1.80;;
53022;SDS011;38913;44.338;11.206;2023-08-12T07:14:36;2.77;;;2.00;;
53022;SDS011;38913;44.338;11.206;2023-08-12T07:17:02;1.80;;;1.70;;
53022;SDS011;38913;44.338;11.206;2023-08-12T07:19:27;2.20;;;1.70;;
53022;SDS011;38913;44.338;11.206;2023-08-12T07:21:52;3.27;;;1.77;;
53022;SDS011;38913;44.338;11.206;2023-08-12T07:24:17;2.27;;;1.60;;
53022;SDS011;38913;44.338;11.206;2023-08-12T07:26:43;2.45;;;1.63;;
53022;SDS011;38913;44.338;11.206;2023-08-12T07:29:08;2.80;;;1.70;;
53022;SDS011;38913;44.338;11.206;2023-08-12T07:31:33;1.75;;;1.65;;
53022;SDS011;38913;44.338;11.206;2023-08-12T07:33:58;2.63;;;1.67;;
53022;SDS011;38913;44.338;11.206;2023-08-12T07:36:24;1.93;;;1.80;;
53022;SDS011;38913;44.338;11.206;2023-08-12T07:38:49;2.00;;;1.80;;
53022;SDS011;38913;44.338;11.206;2023-08-12T07:41:14;4.13;;;1.70;;
53022;SDS011;38913;44.338;11.206;2023-08-12T07:43:39;3.87;;;1.77;;
53022;SDS011;38913;44.338;11.206;2023-08-12T07:46:05;2.87;;;1.90;;
53022;SDS011;38913;44.338;11.206;2023-08-12T07:48:30;5.50;;;2.05;;
53022;SDS011;38913;44.338;11.206;2023-08-12T07:50:59;3.93;;;1.90;;
53022;SDS011;38913;44.338;11.206;2023-08-12T07:53:24;2.90;;;1.70;;
53022;SDS011;38913;44.338;11.206;2023-08-12T07:55:50;3.58;;;2.08;;
53022;SDS011;38913;44.338;11.206;2023-08-12T07:58:16;2.88;;;1.80;;
53022;SDS011;38913;44.338;11.206;2023-08-12T08:00:41;2.75;;;1.88;;
53022;SDS011;38913;44.338;11.206;2023-08-12T08:03:06;3.07;;;1.87;;
53022;SDS011;38913;44.338;11.206;2023-08-12T08:05:32;3.23;;;2.37;;
53022;SDS011;38913;44.338;11.206;2023-08-12T08:07:57;2.00;;;1.70;;
53022;SDS011;38913;44.338;11.206;2023-08-12T08:10:22;2.47;;;1.73;;
53022;SDS011;38913;44.338;11.206;2023-08-12T08:12:47;4.13;;;1.70;;
53022;SDS011;38913;44.338;11.206;2023-08-12T08:15:13;4.88;;;1.50;;
53022;SDS011;38913;44.338;11.206;2023-08-12T08:17:38;2.63;;;1.67;;
53022;SDS011;38913;44.338;11.206;2023-08-12T08:20:03;4.20;;;1.77;;
53022;SDS011;38913;44.338;11.206;2023-08-12T08:22:30;14.63;;;3.15;;
53022;SDS011;38913;44.338;11.206;2023-08-12T08:24:55;3.45;;;1.77;;
53022;SDS011;38913;44.338;11.206;2023-08-12T08:27:21;3.10;;;1.83;;
53022;SDS011;38913;44.338;11.206;2023-08-12T08:29:46;3.13;;;1.80;;
53022;SDS011;38913;44.338;11.206;2023-08-12T08:32:11;1.90;;;1.70;;
53022;SDS011;38913;44.338;11.206;2023-08-12T08:34:36;2.33;;;1.80;;
53022;SDS011;38913;44.338;11.206;2023-08-12T08:37:02;1.93;;;1.77;;
53022;SDS011;38913;44.338;11.206;2023-08-12T08:39:27;2.97;;;1.70;;
53022;SDS011;38913;44.338;11.206;2023-08-12T08:41:53;3.47;;;2.10;;
53022;SDS011;38913;44.338;11.206;2023-08-12T08:44:18;2.40;;;1.95;;
53022;SDS011;38913;44.338;11.206;2023-08-12T08:46:45;3.10;;;2.15;;
53022;SDS011;38913;44.338;11.206;2023-08-12T08:49:11;3.92;;;1.85;;
53022;SDS011;38913;44.338;11.206;2023-08-12T08:51:36;1.88;;;1.60;;
53022;SDS011;38913;44.338;11.206;2023-08-12T08:54:02;2.00;;;1.60;;
53022;SDS011;38913;44.338;11.206;2023-08-12T08:56:29;2.22;;;1.60;;
53022;SDS011;38913;44.338;11.206;2023-08-12T08:58:54;2.45;;;1.80;;
53022;SDS011;38913;44.338;11.206;2023-08-12T09:01:20;2.43;;;1.73;;
53022;SDS011;38913;44.338;11.206;2023-08-12T09:03:47;1.52;;;1.42;;
53022;SDS011;38913;44.338;11.206;2023-08-12T09:06:12;3.50;;;1.55;;
53022;SDS011;38913;44.338;11.206;2023-08-12T09:08:38;3.88;;;1.83;;
53022;SDS011;38913;44.338;11.206;2023-08-12T09:11:05;2.75;;;1.80;;
53022;SDS011;38913;44.338;11.206;2023-08-12T09:13:31;3.38;;;1.65;;
53022;SDS011;38913;44.338;11.206;2023-08-12T09:15:56;2.23;;;1.90;;
53022;SDS011;38913;44.338;11.206;2023-08-12T09:18:21;4.07;;;1.93;;
53022;SDS011;38913;44.338;11.206;2023-08-12T09:20:50;3.58;;;2.03;;
53022;SDS011;38913;44.338;11.206;2023-08-12T09:23:15;2.78;;;1.98;;
53022;SDS011;38913;44.338;11.206;2023-08-12T09:25:41;3.53;;;2.30;;
53022;SDS011;38913;44.338;11.206;2023-08-12T09:28:07;3.50;;;2.10;;
53022;SDS011;38913;44.338;11.206;2023-08-12T09:30:34;2.15;;;1.95;;
53022;SDS011;38913;44.338;11.206;2023-08-12T09:33:00;2.20;;;2.00;;
53022;SDS011;38913;44.338;11.206;2023-08-12T09:35:30;3.28;;;2.20;;
53022;SDS011;38913;44.338;11.206;2023-08-12T09:37:56;2.00;;;1.80;;
53022;SDS011;38913;44.338;11.206;2023-08-12T09:40:22;3.03;;;1.90;;
53022;SDS011;38913;44.338;11.206;2023-08-12T09:42:48;2.97;;;2.05;;
53022;SDS011;38913;44.338;11.206;2023-08-12T09:45:13;3.33;;;2.13;;
53022;SDS011;38913;44.338;11.206;2023-08-12T09:47:38;2.70;;;2.20;;
53022;SDS011;38913;44.338;11.206;2023-08-12T09:50:06;2.95;;;1.92;;
53022;SDS011;38913;44.338;11.206;2023-08-12T09:52:32;3.17;;;2.15;;
53022;SDS011;38913;44.338;11.206;2023-08-12T09:54:57;2.70;;;1.80;;
53022;SDS011;38913;44.338;11.206;2023-08-12T09:57:23;2.03;;;1.88;;
53022;SDS011;38913;44.338;11.206;2023-08-12T09:59:50;2.67;;;1.95;;
53022;SDS011;38913;44.338;11.206;2023-08-12T10:02:18;3.10;;;2.15;;
53022;SDS011;38913;44.338;11.206;2023-08-12T10:04:45;2.70;;;2.00;;
53022;SDS011;38913;44.338;11.206;2023-08-12T10:07:11;3.53;;;2.22;;
53022;SDS011;38913;44.338;11.206;2023-08-12T10:09:39;3.08;;;2.30;;
53022;SDS011;38913;44.338;11.206;2023-08-12T10:12:05;3.58;;;2.22;;
53022;SDS011;38913;44.338;11.206;2023-08-12T10:14:31;2.30;;;2.03;;
53022;SDS011;38913;44.338;11.206;2023-08-12T10:16:57;3.22;;;2.17;;
53022;SDS011;38913;44.338;11.206;2023-08-12T10:19:23;3.17;;;2.05;;
53022;SDS011;38913;44.338;11.206;2023-08-12T10:21:50;3.33;;;2.30;;
53022;SDS011;38913;44.338;11.206;2023-08-12T10:24:19;2.83;;;2.30;;
53022;SDS011;38913;44.338;11.206;2023-08-12T10:26:45;2.80;;;2.45;;
53022;SDS011;38913;44.338;11.206;2023-08-12T10:29:11;3.78;;;2.40;;
53022;SDS011;38913;44.338;11.206;2023-08-12T10:31:37;3.05;;;2.30;;
53022;SDS011;38913;44.338;11.206;2023-08-12T10:34:03;3.15;;;2.25;;
53022;SDS011;38913;44.338;11.206;2023-08-12T10:36:28;3.40;;;2.20;;
53022;SDS011;38913;44.338;11.206;2023-08-12T10:38:53;3.25;;;2.33;;
53022;SDS011;38913;44.338;11.206;2023-08-12T10:41:21;2.45;;;2.17;;
53022;SDS011;38913;44.338;11.206;2023-08-12T10:43:54;3.45;;;2.53;;
53022;SDS011;38913;44.338;11.206;2023-08-12T10:46:33;3.28;;;2.47;;
53022;SDS011;38913;44.338;11.206;2023-08-12T10:54:23;3.08;;;2.45;;
53022;SDS011;38913;44.338;11.206;2023-08-12T11:02:18;3.03;;;2.33;;
53022;SDS011;38913;44.338;11.206;2023-08-12T11:04:43;6.50;;;2.58;;
53022;SDS011;38913;44.338;11.206;2023-08-12T11:07:15;2.63;;;2.42;;
53022;SDS011;38913;44.338;11.206;2023-08-12T11:09:41;2.45;;;2.25;;
53022;SDS011;38913;44.338;11.206;2023-08-12T11:12:06;3.63;;;2.20;;
53022;SDS011;38913;44.338;11.206;2023-08-12T11:14:33;3.92;;;2.60;;
53022;SDS011;38913;44.338;11.206;2023-08-12T11:16:58;3.53;;;2.40;;
53022;SDS011;38913;44.338;11.206;2023-08-12T11:19:23;2.80;;;2.37;;
53022;SDS011;38913;44.338;11.206;2023-08-12T11:21:49;2.95;;;2.30;;
53022;SDS011;38913;44.338;11.206;2023-08-12T11:24:16;2.78;;;2.40;;
53022;SDS011;38913;44.338;11.206;2023-08-12T11:26:42;2.70;;;2.40;;
53022;SDS011;38913;44.338;11.206;2023-08-12T11:29:09;2.70;;;2.50;;
53022;SDS011;38913;44.338;11.206;2023-08-12T11:31:34;3.08;;;2.75;;
53022;SDS011;38913;44.338;11.206;2023-08-12T11:34:01;3.50;;;2.38;;
53022;SDS011;38913;44.338;11.206;2023-08-12T11:36:26;3.20;;;2.47;;
53022;SDS011;38913;44.338;11.206;2023-08-12T11:38:56;3.88;;;2.50;;
53022;SDS011;38913;44.338;11.206;2023-08-12T11:41:22;4.70;;;2.75;;
53022;SDS011;38913;44.338;11.206;2023-08-12T11:43:47;2.50;;;2.30;;
53022;SDS011;38913;44.338;11.206;2023-08-12T11:46:16;3.73;;;2.43;;
53022;SDS011;38913;44.338;11.206;2023-08-12T11:48:43;3.03;;;2.42;;
53022;SDS011;38913;44.338;11.206;2023-08-12T11:51:08;2.58;;;2.38;;
53022;SDS011;38913;44.338;11.206;2023-08-12T11:53:33;3.22;;;2.33;;
53022;SDS011;38913;44.338;11.206;2023-08-12T11:55:59;2.70;;;2.20;;
53022;SDS011;38913;44.338;11.206;2023-08-12T11:58:24;3.50;;;2.53;;
53022;SDS011;38913;44.338;11.206;2023-08-12T12:00:49;2.77;;;2.30;;
53022;SDS011;38913;44.338;11.206;2023-08-12T12:03:15;4.23;;;2.30;;
53022;SDS011;38913;44.338;11.206;2023-08-12T12:05:41;3.60;;;2.47;;
53022;SDS011;38913;44.338;11.206;2023-08-12T12:08:06;3.40;;;2.30;;
53022;SDS011;38913;44.338;11.206;2023-08-12T12:10:34;2.80;;;2.30;;
53022;SDS011;38913;44.338;11.206;2023-08-12T12:13:02;2.75;;;2.30;;
53022;SDS011;38913;44.338;11.206;2023-08-12T12:15:28;2.63;;;2.42;;
53022;SDS011;38913;44.338;11.206;2023-08-12T12:17:53;2.93;;;2.63;;
53022;SDS011;38913;44.338;11.206;2023-08-12T12:20:19;2.93;;;2.40;;
53022;SDS011;38913;44.338;11.206;2023-08-12T12:22:46;3.38;;;2.10;;
53022;SDS011;38913;44.338;11.206;2023-08-12T12:25:12;4.72;;;3.03;;
53022;SDS011;38913;44.338;11.206;2023-08-12T12:27:38;2.60;;;2.22;;
53022;SDS011;38913;44.338;11.206;2023-08-12T12:30:05;2.35;;;2.10;;
53022;SDS011;38913;44.338;11.206;2023-08-12T12:32:31;2.38;;;2.17;;
53022;SDS011;38913;44.338;11.206;2023-08-12T12:34:56;2.15;;;1.95;;
53022;SDS011;38913;44.338;11.206;2023-08-12T12:37:21;3.27;;;2.20;;
53022;SDS011;38913;44.338;11.206;2023-08-12T12:39:47;2.70;;;2.23;;
53022;SDS011;38913;44.338;11.206;2023-08-12T12:42:12;3.80;;;2.47;;
53022;SDS011;38913;44.338;11.206;2023-08-12T12:44:37;3.40;;;2.53;;
53022;SDS011;38913;44.338;11.206;2023-08-12T12:47:03;2.73;;;2.53;;
53022;SDS011;38913;44.338;11.206;2023-08-12T12:49:28;3.15;;;2.15;;
53022;SDS011;38913;44.338;11.206;2023-08-12T12:51:53;3.03;;;2.00;;
53022;SDS011;38913;44.338;11.206;2023-08-12T12:54:19;2.40;;;2.20;;
53022;SDS011;38913;44.338;11.206;2023-08-12T12:56:44;3.10;;;2.30;;
53022;SDS011;38913;44.338;11.206;2023-08-12T12:59:12;4.37;;;2.17;;
53022;SDS011;38913;44.338;11.206;2023-08-12T13:01:39;3.22;;;2.20;;
53022;SDS011;38913;44.338;11.206;2023-08-12T13:04:05;2.72;;;1.95;;
53022;SDS011;38913;44.338;11.206;2023-08-12T13:06:30;3.23;;;2.10;;
53022;SDS011;38913;44.338;11.206;2023-08-12T13:08:55;3.57;;;2.30;;
53022;SDS011;38913;44.338;11.206;2023-08-12T13:11:20;2.90;;;2.40;;
53022;SDS011;38913;44.338;11.206;2023-08-12T13:13:46;2.63;;;2.30;;
53022;SDS011;38913;44.338;11.206;2023-08-12T13:16:11;3.00;;;2.43;;
53022;SDS011;38913;44.338;11.206;2023-08-12T13:18:36;5.23;;;2.53;;
53022;SDS011;38913;44.338;11.206;2023-08-12T13:21:01;4.23;;;2.50;;
53022;SDS011;38913;44.338;11.206;2023-08-12T13:23:26;3.23;;;2.57;;
53022;SDS011;38913;44.338;11.206;2023-08-12T13:25:52;3.40;;;2.23;;
53022;SDS011;38913;44.338;11.206;2023-08-12T13:28:17;2.53;;;2.20;;
53022;SDS011;38913;44.338;11.206;2023-08-12T13:30:43;4.38;;;2.78;;
53022;SDS011;38913;44.338;11.206;2023-08-12T13:33:08;3.78;;;2.30;;
53022;SDS011;38913;44.338;11.206;2023-08-12T13:35:34;3.03;;;2.50;;
53022;SDS011;38913;44.338;11.206;2023-08-12T13:37:59;3.67;;;2.47;;
53022;SDS011;38913;44.338;11.206;2023-08-12T13:40:24;2.90;;;2.30;;
53022;SDS011;38913;44.338;11.206;2023-08-12T13:42:50;3.35;;;2.30;;
53022;SDS011;38913;44.338;11.206;2023-08-12T13:45:15;2.80;;;2.35;;
53022;SDS011;38913;44.338;11.206;2023-08-12T13:47:41;3.70;;;2.50;;
53022;SDS011;38913;44.338;11.206;2023-08-12T13:50:06;4.27;;;2.27;;
53022;SDS011;38913;44.338;11.206;2023-08-12T13:52:31;3.13;;;2.50;;
53022;SDS011;38913;44.338;11.206;2023-08-12T13:54:57;3.03;;;2.50;;
53022;SDS011;38913;44.338;11.206;2023-08-12T13:57:22;2.87;;;2.57;;
53022;SDS011;38913;44.338;11.206;2023-08-12T13:59:47;5.70;;;2.50;;
53022;SDS011;38913;44.338;11.206;2023-08-12T14:02:13;4.63;;;2.60;;
53022;SDS011;38913;44.338;11.206;2023-08-12T14:04:38;2.88;;;2.42;;
53022;SDS011;38913;44.338;11.206;2023-08-12T14:07:03;3.57;;;2.37;;
53022;SDS011;38913;44.338;11.206;2023-08-12T14:09:29;2.58;;;2.28;;
53022;SDS011;38913;44.338;11.206;2023-08-12T14:11:54;3.00;;;2.20;;
53022;SDS011;38913;44.338;11.206;2023-08-12T14:14:19;2.97;;;2.50;;
53022;SDS011;38913;44.338;11.206;2023-08-12T14:16:45;4.60;;;2.40;;
53022;SDS011;38913;44.338;11.206;2023-08-12T14:19:11;4.07;;;2.30;;
53022;SDS011;38913;44.338;11.206;2023-08-12T14:21:36;3.97;;;2.40;;
53022;SDS011;38913;44.338;11.206;2023-08-12T14:26:47;2.63;;;2.35;;
53022;SDS011;38913;44.338;11.206;2023-08-12T14:29:12;4.43;;;2.70;;
53022;SDS011;38913;44.338;11.206;2023-08-12T14:31:37;4.67;;;2.60;;
53022;SDS011;38913;44.338;11.206;2023-08-12T14:34:03;5.27;;;2.70;;
53022;SDS011;38913;44.338;11.206;2023-08-12T14:36:29;3.80;;;2.38;;
53022;SDS011;38913;44.338;11.206;2023-08-12T14:38:54;3.28;;;2.50;;
53022;SDS011;38913;44.338;11.206;2023-08-12T14:41:19;3.87;;;2.50;;
53022;SDS011;38913;44.338;11.206;2023-08-12T14:43:45;4.13;;;2.50;;